Time;durP1;ratioP1;P1;durP2;ratioP2;P2;SDS_P1;SDS_P2;PMS_P1;PMS_P2;Temp;Humidity;BMP_temperature;BMP_pressure;BME280_temperature;BME280_humidity;BME280_pressure;Samples;Min_cycle;Max_cycle;Signal;HPM_P1;HPM_P2
2022/12/14 00:00:45;;;;;;;2.90;2.70;;;;;;;-3.13;91.07;100465.91;4928993;29;20498;-65
2022/12/14 00:03:10;;;;;;;3.00;2.80;;;;;;;-3.13;90.78;100465.91;4931413;29;20040;-65
2022/12/14 00:05:36;;;;;;;3.00;2.80;;;;;;;-3.14;90.41;100464.25;4931492;29;20024;-64
2022/12/14 00:08:01;;;;;;;2.88;2.67;;;;;;;-3.13;90.09;100463.22;4930516;29;20036;-62
2022/12/14 00:10:26;;;;;;;2.90;2.70;;;;;;;-3.14;90.27;100453.50;4930070;29;20055;-64
2022/12/14 00:12:52;;;;;;;2.70;2.50;;;;;;;-3.13;90.16;100446.28;4930201;29;20122;-64
2022/12/14 00:15:17;;;;;;;2.80;2.60;;;;;;;-3.14;89.78;100433.84;4931577;29;20044;-64
2022/12/14 00:17:43;;;;;;;2.90;2.70;;;;;;;-3.14;89.97;100431.16;4929350;29;20032;-64
2022/12/14 00:20:09;;;;;;;2.88;2.67;;;;;;;-3.15;89.79;100432.97;4930931;29;20023;-64
2022/12/14 00:22:34;;;;;;;2.70;2.50;;;;;;;-3.16;89.97;100438.50;4927946;29;20050;-65
2022/12/14 00:24:59;;;;;;;2.80;2.60;;;;;;;-3.16;89.65;100433.97;4931158;29;20067;-65
2022/12/14 00:27:25;;;;;;;2.53;2.42;;;;;;;-3.17;89.61;100429.63;4929816;29;20039;-65
2022/12/14 00:29:51;;;;;;;2.90;2.70;;;;;;;-3.17;89.25;100432.31;4929954;29;20436;-65
2022/12/14 00:32:16;;;;;;;2.70;2.50;;;;;;;-3.18;89.53;100427.94;4930618;29;20355;-64
2022/12/14 00:34:41;;;;;;;2.83;2.63;;;;;;;-3.18;89.03;100430.63;4931098;29;20027;-62
2022/12/14 00:37:06;;;;;;;2.80;2.60;;;;;;;-3.20;88.89;100426.38;4930030;29;20023;-64
2022/12/14 00:39:32;;;;;;;2.58;2.42;;;;;;;-3.20;88.72;100427.22;4931588;29;20126;-64
2022/12/14 00:41:57;;;;;;;2.90;2.70;;;;;;;-3.19;88.83;100420.88;4930053;29;20032;-65
2022/12/14 00:44:23;;;;;;;3.00;2.80;;;;;;;-3.22;88.11;100423.00;4929022;29;20098;-64
2022/12/14 00:46:48;;;;;;;2.83;2.63;;;;;;;-3.27;88.47;100415.41;4930968;29;20024;-63
2022/12/14 00:49:13;;;;;;;2.83;2.58;;;;;;;-3.29;88.99;100416.56;4928972;29;20481;-64
2022/12/14 00:51:39;;;;;;;2.88;2.67;;;;;;;-3.34;88.80;100408.97;4923299;29;20028;-65
2022/12/14 00:54:04;;;;;;;2.80;2.60;;;;;;;-3.36;88.85;100394.00;4926599;29;20040;-63
2022/12/14 00:56:29;;;;;;;2.90;2.70;;;;;;;-3.40;88.42;100388.06;4931234;29;20395;-64
2022/12/14 00:58:54;;;;;;;2.92;2.72;;;;;;;-3.41;88.83;100391.75;4928873;29;20036;-64
2022/12/14 01:01:20;;;;;;;2.90;2.70;;;;;;;-3.47;88.84;100393.22;4930503;29;20031;-62
2022/12/14 01:03:46;;;;;;;2.92;2.72;;;;;;;-3.48;89.03;100388.00;4930022;29;20083;-64
2022/12/14 01:06:19;;;;;;;2.80;2.60;;;;;;;-3.47;89.01;100377.09;4929188;29;20391;-64
2022/12/14 01:08:46;;;;;;;2.80;2.60;;;;;;;-3.49;88.69;100373.75;4929289;29;20106;-65
2022/12/14 01:11:12;;;;;;;2.80;2.60;;;;;;;-3.51;88.88;100370.34;4930761;29;20617;-64
2022/12/14 01:13:38;;;;;;;3.03;2.83;;;;;;;-3.52;89.18;100374.03;4929630;29;20057;-64
2022/12/14 01:16:13;;;;;;;2.88;2.67;;;;;;;-3.52;89.42;100370.50;4928314;29;20043;-65
2022/12/14 01:18:41;;;;;;;2.95;2.75;;;;;;;-3.51;89.48;100367.66;4930128;29;20040;-65
2022/12/14 01:21:11;;;;;;;2.88;2.67;;;;;;;-3.50;89.19;100365.81;4930872;29;20031;-63
2022/12/14 01:23:37;;;;;;;3.00;2.80;;;;;;;-3.49;89.12;100362.16;4928643;29;20056;-64
2022/12/14 01:26:02;;;;;;;2.90;2.70;;;;;;;-3.43;88.89;100364.25;4928980;29;20047;-63
2022/12/14 01:28:28;;;;;;;2.90;2.70;;;;;;;-3.45;89.45;100359.03;4930434;29;20019;-64
2022/12/14 01:30:53;;;;;;;3.00;2.80;;;;;;;-3.47;89.33;100357.47;4929598;29;20032;-64
2022/12/14 01:33:18;;;;;;;2.80;2.60;;;;;;;-3.45;89.49;100352.78;4929340;29;20094;-64
2022/12/14 01:35:44;;;;;;;2.83;2.63;;;;;;;-3.44;89.30;100355.34;4931383;29;20034;-64
2022/12/14 01:38:09;;;;;;;2.90;2.70;;;;;;;-3.44;89.67;100346.44;4933848;29;20028;-64
2022/12/14 01:40:34;;;;;;;2.85;2.65;;;;;;;-3.43;89.55;100356.19;4933340;29;20032;-64
2022/12/14 01:42:59;;;;;;;3.10;2.90;;;;;;;-3.42;89.66;100360.56;4932486;29;20533;-64
2022/12/14 01:45:25;;;;;;;2.90;2.70;;;;;;;-3.43;89.03;100362.41;4931960;29;20420;-64
2022/12/14 01:47:56;;;;;;;2.80;2.60;;;;;;;-3.42;88.93;100363.22;4933288;29;20032;-64
2022/12/14 01:50:32;;;;;;;3.03;2.83;;;;;;;-3.42;89.30;100361.38;4933869;29;20059;-64
2022/12/14 01:53:09;;;;;;;2.80;2.60;;;;;;;-3.42;89.71;100363.22;4931878;29;20443;-65
2022/12/14 01:55:42;;;;;;;3.08;2.65;;;;;;;-3.45;89.77;100353.66;4920358;29;20052;-64
2022/12/14 01:58:15;;;;;;;2.85;2.65;;;;;;;-3.46;89.36;100351.09;4930199;29;20027;-64
2022/12/14 02:00:41;;;;;;;3.08;2.83;;;;;;;-3.48;88.86;100345.06;4933374;29;20031;-64
2022/12/14 02:03:25;;;;;;;3.00;2.80;;;;;;;-3.49;89.21;100354.97;4933628;29;20446;-64
2022/12/14 02:05:56;;;;;;;3.10;2.90;;;;;;;-3.49;89.25;100354.13;4931635;29;20128;-64
2022/12/14 02:08:23;;;;;;;2.88;2.67;;;;;;;-3.51;89.69;100353.41;4932478;29;20431;-64
2022/12/14 02:10:50;;;;;;;2.90;2.70;;;;;;;-3.51;89.19;100343.50;4945218;23;20383;-62
2022/12/14 02:13:21;;;;;;;2.90;2.70;;;;;;;-3.50;89.34;100338.97;4891358;29;20390;-64
2022/12/14 02:15:47;;;;;;;2.80;2.60;;;;;;;-3.52;89.41;100339.13;4893280;29;20064;-62
2022/12/14 02:18:24;;;;;;;2.80;2.60;;;;;;;-3.50;89.33;100328.25;4894211;29;20071;-63
2022/12/14 02:21:04;;;;;;;2.88;2.67;;;;;;;-3.48;88.71;100332.47;4893938;29;20025;-65
2022/12/14 02:23:48;;;;;;;2.80;2.60;;;;;;;-3.47;88.57;100331.47;4893508;29;20055;-64
2022/12/14 02:26:31;;;;;;;2.80;2.60;;;;;;;-3.45;88.51;100331.31;4893204;29;20424;-64
2022/12/14 02:29:42;;;;;;;2.85;2.65;;;;;;;-3.45;88.92;100329.50;4894657;29;20356;-64
2022/12/14 02:32:32;;;;;;;2.78;2.58;;;;;;;-3.47;89.30;100325.25;4892832;29;20041;-64
2022/12/14 02:35:06;;;;;;;2.90;2.70;;;;;;;-3.51;89.01;100324.72;4895572;29;20052;-65
2022/12/14 02:37:43;;;;;;;3.00;2.80;;;;;;;-3.51;88.92;100319.34;4894726;29;20041;-65
2022/12/14 02:40:17;;;;;;;2.88;2.67;;;;;;;-3.52;88.77;100316.81;4894407;29;20147;-64
2022/12/14 02:42:51;;;;;;;2.67;2.47;;;;;;;-3.51;88.95;100315.81;4893585;29;20124;-64
2022/12/14 02:45:25;;;;;;;2.70;2.50;;;;;;;-3.54;88.89;100322.34;4894581;29;20135;-64
2022/12/14 02:48:00;;;;;;;2.78;2.58;;;;;;;-3.55;88.81;100312.59;4894006;29;20068;-64
2022/12/14 02:50:38;;;;;;;2.90;2.70;;;;;;;-3.56;89.19;100318.13;4894131;29;20028;-64
2022/12/14 02:53:22;;;;;;;2.70;2.50;;;;;;;-3.56;88.88;100316.28;4894374;29;20076;-65
2022/12/14 02:55:52;;;;;;;2.85;2.60;;;;;;;-3.58;88.86;100320.97;4894328;29;20059;-65
2022/12/14 02:58:36;;;;;;;2.70;2.50;;;;;;;-3.53;88.48;100315.16;4893497;29;20037;-65
2022/12/14 03:01:02;;;;;;;2.63;2.42;;;;;;;-3.55;88.64;100319.81;4893439;29;20032;-64
2022/12/14 03:03:28;;;;;;;2.88;2.67;;;;;;;-3.53;88.72;100325.88;4895088;29;20067;-64
2022/12/14 03:06:02;;;;;;;2.78;2.58;;;;;;;-3.52;88.64;100317.66;4892999;29;20480;-64
2022/12/14 03:08:33;;;;;;;2.88;2.67;;;;;;;-3.53;88.58;100318.66;4894082;29;20043;-64
2022/12/14 03:11:04;;;;;;;2.47;2.38;;;;;;;-3.51;89.01;100310.47;4893467;29;20100;-64
2022/12/14 03:13:50;;;;;;;2.83;2.63;;;;;;;-3.48;88.87;100310.16;4893647;29;20436;-65
2022/12/14 03:16:26;;;;;;;2.90;2.70;;;;;;;-3.48;88.98;100304.78;4893554;29;20060;-64
2022/12/14 03:19:17;;;;;;;2.88;2.67;;;;;;;-3.45;89.09;100307.16;4893673;29;20031;-64
2022/12/14 03:21:49;;;;;;;2.50;2.40;;;;;;;-3.45;88.59;100312.53;4891804;29;20425;-65
2022/12/14 03:24:24;;;;;;;2.80;2.60;;;;;;;-3.44;88.53;100308.88;4893214;29;20044;-65
2022/12/14 03:27:17;;;;;;;2.50;2.40;;;;;;;-3.43;88.25;100303.34;4890992;29;20024;-65
2022/12/14 03:29:56;;;;;;;2.80;2.60;;;;;;;-3.38;88.46;100299.34;4884181;29;20080;-64
2022/12/14 03:32:25;;;;;;;2.78;2.58;;;;;;;-3.38;87.95;100304.72;4893251;29;20052;-64
2022/12/14 03:35:02;;;;;;;3.00;2.80;;;;;;;-3.36;87.88;100295.50;4893343;29;20659;-64
2022/12/14 03:37:41;;;;;;;2.70;2.50;;;;;;;-3.28;87.65;100281.31;4894402;29;20032;-65
2022/12/14 03:40:09;;;;;;;2.83;2.63;;;;;;;-3.29;86.72;100279.63;4892432;29;20037;-64
2022/12/14 03:42:43;;;;;;;2.63;2.42;;;;;;;-3.26;86.48;100277.47;4890904;29;20029;-64
2022/12/14 03:45:31;;;;;;;2.80;2.60;;;;;;;-3.22;87.25;100278.84;4893982;29;20052;-65
2022/12/14 03:48:21;;;;;;;2.80;2.60;;;;;;;-3.13;86.88;100277.91;4893101;29;20105;-64
2022/12/14 03:50:55;;;;;;;2.80;2.60;;;;;;;-3.15;84.73;100265.63;4879039;29;20059;-64
2022/12/14 03:53:31;;;;;;;2.60;2.40;;;;;;;-3.02;84.26;100267.91;4893580;29;20033;-65
2022/12/14 03:56:08;;;;;;;2.40;2.30;;;;;;;-3.19;84.73;100259.75;4892575;29;20429;-65
2022/12/14 03:58:52;;;;;;;2.90;2.70;;;;;;;-3.25;85.56;100257.66;4892422;29;20124;-64
2022/12/14 04:01:36;;;;;;;2.72;2.53;;;;;;;-3.33;85.77;100260.28;4892822;29;20049;-64
2022/12/14 04:04:40;;;;;;;2.80;2.60;;;;;;;-3.37;86.23;100260.75;4893047;29;20143;-64
2022/12/14 04:07:16;;;;;;;2.90;2.70;;;;;;;-3.39;86.38;100258.25;4881329;29;20045;-64
2022/12/14 04:09:55;;;;;;;2.67;2.47;;;;;;;-3.30;85.94;100256.44;4892634;29;20060;-65
2022/12/14 04:21:10;;;;;;;2.30;2.10;;;;;;;-3.11;84.06;100233.94;4890423;29;20048;-65
2022/12/14 04:26:34;;;;;;;2.50;2.30;;;;;;;-3.04;83.36;100219.72;4874915;29;20110;-64
2022/12/14 04:31:54;;;;;;;3.10;2.80;;;;;;;-3.32;85.11;100229.75;4891018;29;20517;-64
2022/12/14 04:34:22;;;;;;;2.45;2.28;;;;;;;-3.10;84.50;100216.81;4892853;29;20129;-64
2022/12/14 04:36:54;;;;;;;;;;;;;;;-3.20;84.43;100216.91;4891344;29;20164;-64
2022/12/14 04:39:38;;;;;;;2.58;2.47;;;;;;;-3.25;84.17;100216.53;4891420;29;19929;-64
2022/12/14 04:42:07;;;;;;;2.70;2.50;;;;;;;-3.26;84.84;100213.00;4887979;29;20250;-65
2022/12/14 04:44:41;;;;;;;;;;;;;;;-3.23;85.10;100214.56;4891284;29;20115;-63
2022/12/14 04:47:09;;;;;;;2.55;2.38;;;;;;;-3.31;85.22;100209.13;4890469;29;19919;-61
2022/12/14 04:49:41;;;;;;;2.60;2.40;;;;;;;-3.40;85.86;100211.75;4891620;29;20028;-63
2022/12/14 04:52:15;;;;;;;2.70;2.50;;;;;;;-3.22;85.43;100206.34;4891334;29;20383;-65
2022/12/14 04:55:02;;;;;;;2.67;2.47;;;;;;;-3.35;85.88;100205.88;4892847;29;20093;-65
2022/12/14 04:57:38;;;;;;;2.53;2.33;;;;;;;-3.41;86.68;100199.31;4892264;29;20503;-63
2022/12/14 05:00:04;;;;;;;2.40;2.30;;;;;;;-3.41;86.32;100196.63;4892441;29;20289;-64
2022/12/14 05:03:01;;;;;;;2.70;2.50;;;;;;;-3.37;86.05;100202.53;4892264;29;20072;-65
2022/12/14 05:05:56;;;;;;;2.42;2.30;;;;;;;-3.38;86.32;100191.97;4891835;29;20051;-64
2022/12/14 05:08:28;;;;;;;2.75;2.55;;;;;;;-3.40;86.35;100190.28;4886679;29;20040;-64
2022/12/14 05:11:06;;;;;;;2.72;2.53;;;;;;;-3.38;86.08;100187.44;4893620;29;20045;-64
2022/12/14 05:13:36;;;;;;;2.70;2.50;;;;;;;-3.38;86.36;100186.59;4895895;29;20036;-64
2022/12/14 05:16:02;;;;;;;2.78;2.58;;;;;;;-3.36;86.41;100190.78;4895749;29;20325;-65
2022/12/14 05:18:27;;;;;;;2.55;2.45;;;;;;;-3.27;85.40;100179.09;4896293;29;20028;-64
2022/12/14 05:20:53;;;;;;;2.90;2.70;;;;;;;-3.33;86.25;100193.16;4895738;29;20550;-64
2022/12/14 05:23:18;;;;;;;2.72;2.53;;;;;;;-3.32;86.01;100181.41;4895573;29;20040;-64
2022/12/14 05:25:43;;;;;;;2.65;2.45;;;;;;;-3.34;86.03;100180.75;4895079;29;20035;-62
2022/12/14 05:28:10;;;;;;;2.70;2.50;;;;;;;-3.33;86.10;100179.75;4895159;29;20043;-65
2022/12/14 05:30:35;;;;;;;2.42;2.33;;;;;;;-3.27;85.77;100178.28;4895198;29;20039;-64
2022/12/14 05:33:00;;;;;;;2.60;2.40;;;;;;;-3.31;86.02;100180.41;4895701;29;20036;-64
2022/12/14 05:35:26;;;;;;;2.55;2.38;;;;;;;-3.30;86.03;100173.19;4895303;29;20517;-65
2022/12/14 05:37:51;;;;;;;2.58;2.40;;;;;;;-3.29;85.98;100169.53;4895519;29;20044;-64
2022/12/14 05:40:16;;;;;;;2.65;2.50;;;;;;;-3.28;85.83;100173.91;4894988;29;20025;-64
2022/12/14 05:42:42;;;;;;;2.42;2.30;;;;;;;-3.28;86.10;100172.06;4894300;29;20069;-63
2022/12/14 05:45:10;;;;;;;2.40;2.30;;;;;;;-3.30;86.11;100168.66;4895509;29;20036;-64
2022/12/14 05:47:35;;;;;;;2.58;2.38;;;;;;;-3.29;86.63;100172.22;4895390;29;20036;-65
2022/12/14 05:50:00;;;;;;;2.83;2.63;;;;;;;-3.30;86.70;100174.03;4895477;29;20032;-63
2022/12/14 05:52:26;;;;;;;2.50;2.35;;;;;;;-3.19;85.84;100173.81;4895299;29;20092;-64
2022/12/14 05:54:52;;;;;;;2.63;2.40;;;;;;;-3.29;86.33;100175.75;4895152;29;20036;-64
2022/12/14 05:57:17;;;;;;;2.60;2.40;;;;;;;-3.29;86.48;100170.38;4894220;29;20028;-64
2022/12/14 05:59:43;;;;;;;2.40;2.22;;;;;;;-3.29;86.79;100173.06;4894662;29;20040;-64
2022/12/14 06:02:08;;;;;;;2.45;2.35;;;;;;;-3.30;86.64;100170.53;4894853;29;20024;-64
2022/12/14 06:04:33;;;;;;;2.60;2.40;;;;;;;-3.30;86.67;100179.41;4895259;29;20044;-65
2022/12/14 06:06:58;;;;;;;2.60;2.45;;;;;;;-3.32;86.75;100170.69;4895009;29;20066;-65
2022/12/14 06:09:24;;;;;;;2.60;2.40;;;;;;;-3.32;86.51;100176.06;4894809;29;20531;-65
2022/12/14 06:11:49;;;;;;;2.50;2.30;;;;;;;-3.32;86.14;100170.69;4891558;29;20391;-63
2022/12/14 06:14:16;;;;;;;2.60;2.40;;;;;;;-3.30;85.94;100167.84;4894829;29;20029;-65
2022/12/14 06:16:43;;;;;;;2.47;2.38;;;;;;;-3.33;85.83;100157.44;4894530;29;20127;-65
2022/12/14 06:19:09;;;;;;;2.70;2.50;;;;;;;-3.35;85.91;100162.94;4894633;29;20657;-64
2022/12/14 06:21:36;;;;;;;2.55;2.35;;;;;;;-3.22;85.39;100163.38;4893456;29;20357;-64
2022/12/14 06:24:03;;;;;;;2.70;2.50;;;;;;;-3.35;85.64;100159.41;4894684;29;20372;-65
2022/12/14 06:26:30;;;;;;;2.70;2.50;;;;;;;-3.32;85.25;100162.63;4893797;29;20031;-62
2022/12/14 06:28:56;;;;;;;2.45;2.30;;;;;;;-3.20;84.10;100158.66;4894377;29;20036;-65
2022/12/14 06:31:25;;;;;;;2.50;2.30;;;;;;;-3.32;84.86;100159.94;4894237;29;20036;-64
2022/12/14 06:33:52;;;;;;;2.60;2.40;;;;;;;-3.17;83.89;100154.84;4894303;29;20088;-64
2022/12/14 06:36:26;;;;;;;2.67;2.47;;;;;;;-3.23;84.45;100160.84;4894100;29;20024;-65
2022/12/14 06:38:52;;;;;;;2.40;2.30;;;;;;;-3.38;85.45;100159.75;4894329;29;20439;-64
2022/12/14 06:41:18;;;;;;;2.50;2.30;;;;;;;-3.34;84.66;100164.66;4893935;29;20416;-64
2022/12/14 06:43:44;;;;;;;2.65;2.45;;;;;;;-3.40;85.21;100176.00;4890558;29;20039;-65
2022/12/14 06:46:11;;;;;;;2.67;2.47;;;;;;;-3.43;85.97;100170.94;4893937;29;20033;-65
2022/12/14 06:48:37;;;;;;;2.20;2.10;;;;;;;-3.42;86.36;100176.16;4893626;29;20029;-65
2022/12/14 06:51:03;;;;;;;2.53;2.38;;;;;;;-3.43;86.66;100177.16;4894234;29;20107;-64
2022/12/14 06:53:29;;;;;;;2.53;2.33;;;;;;;-3.44;87.65;100166.59;4893913;29;20052;-65
2022/12/14 06:56:07;;;;;;;2.80;2.60;;;;;;;-3.46;88.63;100171.25;4893416;29;20476;-63
2022/12/14 06:58:33;;;;;;;3.80;3.50;;;;;;;-3.48;89.32;100170.56;4892686;29;20076;-63
2022/12/14 07:01:03;;;;;;;3.75;3.45;;;;;;;-3.51;89.59;100176.25;4894015;29;20036;-65
2022/12/14 07:03:29;;;;;;;4.57;4.18;;;;;;;-3.55;89.77;100175.72;4894245;29;20115;-65
2022/12/14 07:05:56;;;;;;;4.45;4.10;;;;;;;-3.57;90.00;100183.09;4893395;29;20112;-64
2022/12/14 07:08:21;;;;;;;4.50;4.10;;;;;;;-3.60;90.37;100177.19;4893580;29;20039;-65
2022/12/14 07:10:47;;;;;;;3.40;3.10;;;;;;;-3.59;90.47;100186.94;4892728;29;20128;-64
2022/12/14 07:13:12;;;;;;;3.50;3.20;;;;;;;-3.60;90.26;100188.75;4893118;29;20041;-65
2022/12/14 07:15:38;;;;;;;3.80;3.50;;;;;;;-3.60;89.92;100182.53;4893252;29;20116;-63
2022/12/14 07:18:03;;;;;;;3.90;3.60;;;;;;;-3.50;88.46;100183.28;4894439;29;20032;-63
2022/12/14 07:20:28;;;;;;;3.53;3.22;;;;;;;-3.53;87.46;100189.84;4912293;29;20032;-65
2022/12/14 07:22:54;;;;;;;2.85;2.65;;;;;;;-3.48;87.00;100181.31;4911742;29;20043;-65
2022/12/14 07:25:19;;;;;;;2.40;2.30;;;;;;;-3.52;86.25;100179.94;4911130;29;20091;-65
2022/12/14 07:27:44;;;;;;;2.70;2.50;;;;;;;-3.72;87.61;100184.63;4910974;29;20059;-65
2022/12/14 07:30:10;;;;;;;2.67;2.50;;;;;;;-3.75;87.49;100183.13;4912091;29;20027;-62
2022/12/14 07:32:36;;;;;;;2.80;2.60;;;;;;;-3.75;87.35;100187.63;4911669;29;20593;-64
2022/12/14 07:35:01;;;;;;;2.80;2.60;;;;;;;-3.78;87.44;100180.75;4906930;29;20040;-65
2022/12/14 07:37:26;;;;;;;2.78;2.58;;;;;;;-3.71;86.30;100176.44;4892590;29;20487;-63
2022/12/14 07:39:51;;;;;;;2.55;2.35;;;;;;;-3.80;86.81;100182.75;4895664;29;20050;-65
2022/12/14 07:42:17;;;;;;;2.53;2.42;;;;;;;-3.87;86.96;100186.19;4891585;29;20028;-65
2022/12/14 07:44:42;;;;;;;2.70;2.50;;;;;;;-3.85;87.07;100190.41;4893129;29;20036;-65
2022/12/14 07:47:07;;;;;;;2.70;2.50;;;;;;;-3.92;87.23;100183.97;4893124;29;20027;-65
2022/12/14 07:49:32;;;;;;;2.75;2.55;;;;;;;-3.91;87.43;100189.16;4892958;29;20093;-62
2022/12/14 07:51:58;;;;;;;3.35;2.38;;;;;;;-3.91;87.09;100191.00;4892585;29;20032;-64
2022/12/14 07:54:25;;;;;;;2.10;2.00;;;;;;;-3.81;86.67;100191.78;4892690;29;20367;-65
2022/12/14 07:56:50;;;;;;;2.78;2.58;;;;;;;-3.98;87.52;100200.69;4892065;29;20040;-64
2022/12/14 07:59:16;;;;;;;2.25;2.15;;;;;;;-3.81;86.54;100196.28;4893224;29;20123;-65
2022/12/14 08:01:42;;;;;;;2.75;2.55;;;;;;;-3.92;86.71;100200.91;4892717;29;20029;-64
2022/12/14 08:04:10;;;;;;;2.80;2.60;;;;;;;-3.99;87.60;100201.69;4893369;29;20042;-64
2022/12/14 08:06:36;;;;;;;2.15;2.05;;;;;;;-3.88;86.67;100204.13;4892698;29;20555;-63
2022/12/14 08:09:03;;;;;;;2.65;2.45;;;;;;;-3.87;86.10;100203.13;4893027;29;20029;-64
2022/12/14 08:11:29;;;;;;;2.65;2.45;;;;;;;-3.89;85.80;100210.50;4891873;29;20064;-64
2022/12/14 08:13:56;;;;;;;2.92;2.72;;;;;;;-4.02;86.81;100212.69;4892368;29;20041;-65
2022/12/14 08:16:23;;;;;;;2.80;2.60;;;;;;;-4.10;87.03;100213.47;4892985;29;20037;-65
2022/12/14 08:18:48;;;;;;;2.70;2.50;;;;;;;-3.99;85.98;100207.88;4892391;29;20036;-62
2022/12/14 08:21:16;;;;;;;2.80;2.60;;;;;;;-4.11;87.12;100222.50;4892876;29;20024;-64
2022/12/14 08:23:41;;;;;;;2.88;2.67;;;;;;;-4.11;86.96;100211.75;4892601;29;20025;-64
2022/12/14 08:26:07;;;;;;;2.50;2.35;;;;;;;-4.11;87.16;100222.50;4891381;29;20048;-64
2022/12/14 08:28:34;;;;;;;2.83;2.63;;;;;;;-4.14;86.88;100216.59;4891755;29;20028;-62
2022/12/14 08:31:12;;;;;;;2.70;2.50;;;;;;;-4.02;87.60;100224.25;4891135;29;20032;-64
2022/12/14 08:33:38;;;;;;;2.60;2.47;;;;;;;-4.21;88.30;100227.94;4891584;29;20035;-61
2022/12/14 08:36:09;;;;;;;2.70;2.50;;;;;;;-4.25;89.84;100221.19;4891191;29;20029;-65
2022/12/14 08:38:35;;;;;;;2.65;2.50;;;;;;;-4.31;90.23;100232.53;4891483;29;20029;-65
2022/12/14 08:41:20;;;;;;;3.20;3.00;;;;;;;-4.32;90.92;100222.75;4891428;29;20029;-62
2022/12/14 08:43:49;;;;;;;2.80;2.60;;;;;;;-4.26;90.41;100214.16;4892440;29;20115;-65
2022/12/14 08:46:14;;;;;;;2.80;2.60;;;;;;;-4.18;89.71;100213.38;4895251;29;20036;-64
2022/12/14 08:48:39;;;;;;;2.70;2.50;;;;;;;-4.05;88.11;100208.50;4895157;29;20035;-65
2022/12/14 08:51:08;;;;;;;2.97;2.78;;;;;;;-4.13;88.74;100216.44;4896442;29;20037;-64
2022/12/14 08:53:34;;;;;;;2.80;2.60;;;;;;;-4.17;89.54;100215.91;4896619;29;20032;-65
2022/12/14 08:56:04;;;;;;;3.10;2.85;;;;;;;-4.17;90.75;100226.63;4896355;29;20056;-65
2022/12/14 08:58:30;;;;;;;3.08;2.80;;;;;;;-4.01;91.15;100222.44;4896586;29;20480;-65
2022/12/14 09:01:06;;;;;;;2.90;2.70;;;;;;;-3.63;90.28;100220.44;4896040;29;20043;-65
2022/12/14 09:03:32;;;;;;;2.80;2.60;;;;;;;-3.27;87.84;100224.75;4896231;29;20032;-65
2022/12/14 09:06:02;;;;;;;2.13;2.03;;;;;;;-2.76;83.73;100211.47;4895914;29;20033;-65
2022/12/14 09:08:27;;;;;;;2.22;2.03;;;;;;;-2.70;82.56;100213.50;4896223;29;20029;-65
2022/12/14 09:10:53;;;;;;;2.30;2.20;;;;;;;-2.16;78.92;100216.75;4895228;29;20049;-65
2022/12/14 09:13:18;;;;;;;2.70;2.50;;;;;;;-2.63;79.54;100214.56;4895483;29;20240;-65
2022/12/14 09:15:43;;;;;;;2.75;2.55;;;;;;;-2.87;80.88;100218.81;4895445;29;20025;-65
2022/12/14 09:18:09;;;;;;;2.70;2.50;;;;;;;-2.88;81.57;100232.41;4896112;29;20477;-65
2022/12/14 09:20:34;;;;;;;2.28;2.15;;;;;;;-2.67;79.84;100229.31;4896032;29;20032;-64
2022/12/14 09:22:59;;;;;;;2.40;2.30;;;;;;;-2.85;80.78;100233.91;4896081;29;20044;-64
2022/12/14 09:25:25;;;;;;;2.10;2.00;;;;;;;-2.66;78.86;100233.69;4895290;29;20036;-65
2022/12/14 09:27:50;;;;;;;2.38;2.28;;;;;;;-3.04;80.75;100237.66;4894743;29;20040;-65
2022/12/14 09:30:16;;;;;;;2.78;2.58;;;;;;;-3.01;80.67;100232.81;4895775;29;20035;-64
2022/12/14 09:32:43;;;;;;;2.15;2.05;;;;;;;-2.95;80.59;100236.72;4895786;29;20084;-65
2022/12/14 09:35:08;;;;;;;2.22;2.13;;;;;;;-2.76;80.09;100236.50;4895745;29;20025;-65
2022/12/14 09:37:34;;;;;;;1.98;1.88;;;;;;;-2.55;79.69;100232.56;4896000;29;20428;-64
2022/12/14 09:39:59;;;;;;;2.40;2.30;;;;;;;-2.56;79.98;100228.19;4895598;29;20036;-65
2022/12/14 09:42:55;;;;;;;2.80;2.60;;;;;;;-2.58;81.36;100230.22;4894463;29;20028;-63
2022/12/14 09:45:26;;;;;;;2.40;2.30;;;;;;;-2.31;79.61;100238.03;4895766;29;20108;-65
2022/12/14 09:48:14;;;;;;;2.50;2.30;;;;;;;-2.33;79.25;100237.38;4893410;29;20408;-64
2022/12/14 09:50:39;;;;;;;2.33;2.22;;;;;;;-2.02;77.57;100226.88;4895095;29;20036;-65
2022/12/14 09:53:06;;;;;;;2.22;2.10;;;;;;;-1.87;77.55;100229.78;4895288;29;20449;-64
2022/12/14 09:55:36;;;;;;;2.00;1.90;;;;;;;-1.24;75.16;100222.88;4894941;29;20029;-64
2022/12/14 09:58:08;;;;;;;2.25;2.15;;;;;;;-0.82;73.21;100222.63;4892919;29;20028;-64
2022/12/14 10:00:39;;;;;;;2.13;2.03;;;;;;;-0.17;71.06;100210.75;4893652;29;20041;-63
2022/12/14 10:03:27;;;;;;;2.30;2.10;;;;;;;0.52;68.54;100209.78;4895588;29;20488;-64
2022/12/14 10:06:27;;;;;;;2.25;2.05;;;;;;;1.83;67.19;100211.13;4893421;29;20036;-63
2022/12/14 10:09:08;;;;;;;2.10;2.00;;;;;;;3.15;62.15;100197.16;4895097;29;20036;-64
2022/12/14 10:12:03;;;;;;;2.38;2.17;;;;;;;4.42;57.50;100208.38;4894430;29;20063;-64
2022/12/14 10:14:35;;;;;;;2.33;2.20;;;;;;;5.53;51.90;100203.09;4893671;29;20737;-64
2022/12/14 10:17:16;;;;;;;2.03;1.83;;;;;;;5.16;52.09;100210.88;4895567;29;20032;-63
2022/12/14 10:19:53;;;;;;;1.88;1.73;;;;;;;5.60;52.11;100201.16;4893600;29;20033;-63
2022/12/14 10:22:24;;;;;;;2.20;2.10;;;;;;;5.91;50.63;100196.88;4894441;29;20448;-63
2022/12/14 10:25:08;;;;;;;1.95;1.85;;;;;;;6.50;50.13;100201.22;4894770;29;20127;-64
2022/12/14 10:27:34;;;;;;;2.00;1.90;;;;;;;7.45;47.69;100204.59;4891636;29;20045;-63
2022/12/14 10:30:20;;;;;;;2.20;1.98;;;;;;;7.38;46.34;100206.56;4889460;29;20032;-64
2022/12/14 10:33:02;;;;;;;2.00;1.90;;;;;;;8.17;46.74;100203.97;4894036;29;20046;-64
2022/12/14 10:35:42;;;;;;;1.90;1.80;;;;;;;8.96;46.05;100200.06;4893287;29;20057;-64
2022/12/14 10:38:32;;;;;;;1.75;1.65;;;;;;;9.70;46.09;100205.09;4893789;29;20448;-64
2022/12/14 10:41:35;;;;;;;1.80;1.70;;;;;;;9.92;45.66;100214.31;4893610;29;20064;-63
2022/12/14 10:44:04;;;;;;;1.60;1.50;;;;;;;9.57;40.80;100211.63;4895120;29;20039;-62
2022/12/14 10:46:58;;;;;;;1.70;1.60;;;;;;;10.16;43.60;100206.88;4892535;29;20499;-64
2022/12/14 10:49:32;;;;;;;1.48;1.38;;;;;;;10.44;39.70;100206.09;4891746;29;20051;-63
2022/12/14 10:52:15;;;;;;;1.80;1.70;;;;;;;8.95;41.41;100211.25;4892269;29;20098;-63
2022/12/14 10:54:48;;;;;;;1.60;1.50;;;;;;;9.32;41.63;100211.88;4876009;29;20388;-64
2022/12/14 10:57:19;;;;;;;1.67;1.58;;;;;;;9.85;40.25;100213.66;4891076;29;20036;-63
2022/12/14 10:59:45;;;;;;;1.50;1.40;;;;;;;10.31;39.80;100204.47;4893562;29;20033;-64
2022/12/14 11:02:15;;;;;;;1.60;1.50;;;;;;;10.77;38.41;100210.81;4894363;29;20472;-64
2022/12/14 11:04:58;;;;;;;1.40;1.40;;;;;;;11.05;38.31;100207.19;4894140;29;20108;-64
2022/12/14 11:07:39;;;;;;;1.48;1.42;;;;;;;11.22;37.94;100193.44;4875294;29;20041;-64
2022/12/14 11:10:23;;;;;;;1.40;1.40;;;;;;;10.88;36.84;100201.66;4875454;29;20414;-63
2022/12/14 11:13:03;;;;;;;1.40;1.30;;;;;;;9.36;37.58;100193.91;4874683;29;20056;-64
2022/12/14 11:15:38;;;;;;;1.70;1.60;;;;;;;8.74;39.41;100204.44;4880053;29;20044;-64
2022/12/14 11:18:29;;;;;;;1.70;1.60;;;;;;;9.03;40.43;100208.19;4893700;29;20032;-63
2022/12/14 11:20:56;;;;;;;1.40;1.40;;;;;;;9.75;36.68;100200.53;4885689;29;20047;-64
2022/12/14 11:23:44;;;;;;;1.40;1.40;;;;;;;9.41;37.61;100210.47;4894140;29;20085;-64
2022/12/14 11:26:12;;;;;;;1.60;1.45;;;;;;;9.51;37.05;100205.22;4890833;29;20466;-64
2022/12/14 11:28:51;;;;;;;1.50;1.45;;;;;;;9.43;37.14;100213.81;4893223;29;20040;-63
2022/12/14 11:31:42;;;;;;;1.60;1.50;;;;;;;9.43;38.11;100211.06;4894011;29;20048;-64
2022/12/14 11:34:38;;;;;;;1.50;1.40;;;;;;;9.45;38.77;100210.81;4892671;29;20040;-64
2022/12/14 11:37:26;;;;;;;1.70;1.60;;;;;;;8.46;39.02;100205.88;4885612;29;20096;-64
2022/12/14 11:40:02;;;;;;;1.40;1.30;;;;;;;7.15;40.69;100215.41;4893445;29;20112;-64
2022/12/14 11:42:28;;;;;;;1.55;1.45;;;;;;;6.59;41.36;100216.25;4893194;29;20055;-64
2022/12/14 11:44:53;;;;;;;1.88;1.70;;;;;;;6.89;42.29;100205.50;4892216;29;20072;-64
2022/12/14 11:47:22;;;;;;;1.80;1.70;;;;;;;6.64;41.03;100210.13;4892110;29;20578;-65
2022/12/14 11:49:54;;;;;;;;;;;;;;;6.69;45.05;100202.09;4893959;29;20028;-65
2022/12/14 11:52:23;;;;;;;1.70;1.60;;;;;;;6.47;42.27;100204.38;4893399;29;19963;-64
2022/12/14 11:54:51;;;;;;;1.70;1.60;;;;;;;6.52;43.91;100207.25;4891016;29;20511;-65
2022/12/14 11:57:31;;;;;;;2.00;1.90;;;;;;;7.52;42.82;100204.53;4890928;29;20056;-64
2022/12/14 12:00:00;;;;;;;1.60;1.50;;;;;;;7.98;39.94;100194.94;4893006;29;20033;-64